Time;durP1;ratioP1;P1;durP2;ratioP2;P2;SDS_P1;SDS_P2;PMS_P1;PMS_P2;Temp;Humidity;BMP_temperature;BMP_pressure;BME280_temperature;BME280_humidity;BME280_pressure;Samples;Min_cycle;Max_cycle;Signal;HPM_P1;HPM_P2
2023/12/09 00:04:05;;;;;;;;;;;16.80;62.40;;;;;;10274911;28;94622;-64
2023/12/09 00:09:07;;;;;;;;;;;16.70;62.40;;;;;;10249876;28;94810;-64
2023/12/09 00:14:09;;;;;;;;;;;16.70;62.40;;;;;;10267280;28;94133;-64
2023/12/09 00:19:12;;;;;;;;;;;16.70;62.30;;;;;;10271811;28;93278;-64
2023/12/09 00:24:14;;;;;;;;;;;16.60;62.40;;;;;;10250809;28;94770;-64
2023/12/09 00:29:16;;;;;;;;;;;16.60;62.30;;;;;;10269954;28;93988;-64
2023/12/09 00:34:18;;;;;;;;;;;16.60;62.30;;;;;;10253738;28;92883;-65
2023/12/09 00:39:20;;;;;;;;;;;16.60;62.30;;;;;;10268470;28;93978;-64
2023/12/09 00:44:24;;;;;;;;;;;16.60;62.30;;;;;;10259063;28;93664;-64
2023/12/09 00:49:25;;;;;;;;;;;16.50;62.20;;;;;;10268132;28;96270;-64
2023/12/09 00:54:29;;;;;;;;;;;16.50;62.20;;;;;;10278043;28;93565;-64
2023/12/09 00:59:31;;;;;;;;;;;16.50;62.20;;;;;;10282782;28;93437;-65
2023/12/09 01:04:33;;;;;;;;;;;16.50;62.20;;;;;;10277047;28;94137;-64
2023/12/09 01:09:35;;;;;;;;;;;16.50;62.20;;;;;;10269488;28;95496;-64
2023/12/09 01:14:37;;;;;;;;;;;16.40;62.10;;;;;;10277807;28;93808;-64
2023/12/09 01:19:39;;;;;;;;;;;16.40;62.10;;;;;;10281469;28;94422;-64
2023/12/09 01:24:42;;;;;;;;;;;16.40;62.10;;;;;;10275153;28;92890;-64
2023/12/09 01:29:44;;;;;;;;;;;16.40;62.10;;;;;;10273909;28;93886;-64
2023/12/09 01:34:46;;;;;;;;;;;16.40;62.10;;;;;;10275794;28;93624;-65
2023/12/09 01:39:49;;;;;;;;;;;16.40;62.10;;;;;;10266958;28;95334;-65
2023/12/09 01:44:50;;;;;;;;;;;16.40;62.00;;;;;;10262749;28;94604;-64
2023/12/09 01:49:52;;;;;;;;;;;16.30;61.90;;;;;;10269195;28;93667;-64
2023/12/09 01:54:54;;;;;;;;;;;16.30;61.80;;;;;;10268812;28;93377;-65
2023/12/09 01:59:56;;;;;;;;;;;16.30;61.80;;;;;;10269889;28;94603;-64
2023/12/09 02:04:58;;;;;;;;;;;16.30;61.80;;;;;;10727750;22;95159;-62
2023/12/09 02:10:00;;;;;;;;;;;16.30;61.80;;;;;;10273835;28;94527;-62
2023/12/09 02:15:06;;;;;;;;;;;16.30;62.20;;;;;;10280487;28;93104;-62
2023/12/09 02:20:11;;;;;;;;;;;16.30;61.70;;;;;;10280345;28;93509;-62
2023/12/09 02:25:12;;;;;;;;;;;16.30;61.60;;;;;;10282414;28;96313;-62
2023/12/09 02:30:25;;;;;;;;;;;16.40;61.70;;;;;;10272743;28;95736;-62
2023/12/09 02:35:28;;;;;;;;;;;16.30;61.60;;;;;;10281380;28;94475;-62
2023/12/09 02:40:29;;;;;;;;;;;16.30;61.50;;;;;;10281726;28;93585;-62
2023/12/09 02:45:31;;;;;;;;;;;16.30;61.60;;;;;;10271269;28;93154;-62
2023/12/09 02:50:33;;;;;;;;;;;16.30;61.60;;;;;;10282796;28;94524;-62
2023/12/09 02:55:35;;;;;;;;;;;16.20;61.50;;;;;;10280835;28;93556;-64
2023/12/09 03:00:37;;;;;;;;;;;16.20;61.50;;;;;;10282030;28;93792;-64
2023/12/09 03:05:39;;;;;;;;;;;16.20;61.50;;;;;;10280077;28;93085;-62
2023/12/09 03:10:40;;;;;;;;;;;16.20;61.50;;;;;;10289012;28;93817;-62
2023/12/09 03:15:42;;;;;;;;;;;16.20;61.50;;;;;;10289150;28;93477;-64
2023/12/09 03:20:44;;;;;;;;;;;16.20;61.50;;;;;;10292732;28;97153;-62
2023/12/09 03:25:46;;;;;;;;;;;16.10;61.50;;;;;;10273659;28;93471;-63
2023/12/09 03:30:48;;;;;;;;;;;16.10;61.50;;;;;;10288356;28;93803;-63
2023/12/09 03:35:50;;;;;;;;;;;16.10;61.50;;;;;;10282249;28;94921;-63
2023/12/09 03:40:52;;;;;;;;;;;16.10;61.50;;;;;;10280136;28;94192;-62
2023/12/09 03:45:53;;;;;;;;;;;16.10;61.50;;;;;;10271778;28;93587;-62
2023/12/09 03:50:55;;;;;;;;;;;16.10;61.50;;;;;;10280744;28;94670;-62
2023/12/09 03:55:57;;;;;;;;;;;16.10;61.40;;;;;;10281750;28;93013;-62
2023/12/09 04:00:59;;;;;;;;;;;16.20;61.30;;;;;;10278326;28;93459;-63
2023/12/09 04:06:03;;;;;;;;;;;16.20;61.00;;;;;;10282623;28;93447;-63
2023/12/09 04:11:05;;;;;;;;;;;16.30;60.80;;;;;;10276564;28;97075;-63
2023/12/09 04:16:07;;;;;;;;;;;16.30;60.60;;;;;;10274146;28;93667;-63
2023/12/09 04:21:09;;;;;;;;;;;16.30;60.60;;;;;;10280600;28;92926;-70
2023/12/09 04:26:11;;;;;;;;;;;16.30;60.60;;;;;;10278791;28;93591;-63
2023/12/09 04:31:13;;;;;;;;;;;16.30;60.60;;;;;;10284069;28;94420;-63
2023/12/09 04:36:15;;;;;;;;;;;16.30;60.60;;;;;;10284369;28;93190;-63
2023/12/09 04:41:17;;;;;;;;;;;16.30;60.50;;;;;;10285724;28;93667;-63
2023/12/09 04:46:19;;;;;;;;;;;16.20;60.60;;;;;;10284897;28;92724;-63
2023/12/09 04:51:20;;;;;;;;;;;16.20;60.60;;;;;;10288220;28;94852;-63
2023/12/09 04:56:22;;;;;;;;;;;16.20;60.80;;;;;;10286144;28;94249;-63
2023/12/09 05:01:24;;;;;;;;;;;16.20;60.80;;;;;;10282080;28;96135;-63
2023/12/09 05:06:26;;;;;;;;;;;16.10;60.70;;;;;;10285925;28;94780;-63
2023/12/09 05:11:28;;;;;;;;;;;16.10;60.80;;;;;;10287706;28;94595;-63
2023/12/09 05:16:30;;;;;;;;;;;16.10;60.90;;;;;;10292099;28;92734;-62
2023/12/09 05:21:31;;;;;;;;;;;16.10;60.90;;;;;;10292684;28;94925;-62
2023/12/09 05:26:37;;;;;;;;;;;16.00;61.00;;;;;;10287429;28;93275;-62
2023/12/09 05:31:40;;;;;;;;;;;16.00;60.90;;;;;;10285151;28;94460;-62
2023/12/09 05:36:42;;;;;;;;;;;16.00;61.00;;;;;;10284925;28;93646;-63
2023/12/09 05:41:44;;;;;;;;;;;16.00;61.00;;;;;;10283317;28;94522;-63
2023/12/09 05:46:46;;;;;;;;;;;16.00;60.90;;;;;;10303250;28;94692;-62
2023/12/09 05:51:48;;;;;;;;;;;16.20;60.80;;;;;;10280733;28;97235;-64
2023/12/09 05:56:50;;;;;;;;;;;16.50;60.40;;;;;;10282159;28;94477;-61
2023/12/09 06:01:52;;;;;;;;;;;16.80;59.80;;;;;;10297680;28;94595;-62
2023/12/09 06:06:54;;;;;;;;;;;17.00;59.10;;;;;;10282193;28;93842;-63
2023/12/09 06:11:55;;;;;;;;;;;17.10;58.80;;;;;;10296084;28;95018;-62
2023/12/09 06:16:57;;;;;;;;;;;17.10;58.60;;;;;;10278885;28;94480;-62
2023/12/09 06:21:59;;;;;;;;;;;17.10;58.50;;;;;;10276695;28;94606;-62
2023/12/09 06:27:01;;;;;;;;;;;17.10;58.60;;;;;;10283311;28;93874;-62
2023/12/09 06:32:03;;;;;;;;;;;17.00;58.50;;;;;;10274433;28;94401;-62
2023/12/09 06:37:05;;;;;;;;;;;17.00;58.60;;;;;;10288422;28;93379;-62
2023/12/09 06:42:07;;;;;;;;;;;16.90;58.70;;;;;;10279455;28;95798;-61
2023/12/09 06:47:11;;;;;;;;;;;16.90;59.10;;;;;;10284716;28;93350;-62
2023/12/09 06:52:13;;;;;;;;;;;17.00;59.30;;;;;;10281924;28;93472;-62
2023/12/09 06:57:15;;;;;;;;;;;17.00;59.10;;;;;;10281930;28;94072;-63
2023/12/09 07:02:17;;;;;;;;;;;17.00;59.10;;;;;;10287645;28;93528;-62
2023/12/09 07:07:19;;;;;;;;;;;17.00;59.20;;;;;;10283022;28;93584;-63
2023/12/09 07:12:23;;;;;;;;;;;16.90;59.30;;;;;;10286637;28;93792;-63
2023/12/09 07:17:25;;;;;;;;;;;16.90;59.50;;;;;;10298662;28;93161;-63
2023/12/09 07:22:27;;;;;;;;;;;16.90;59.70;;;;;;10298509;28;94533;-63
2023/12/09 07:27:29;;;;;;;;;;;16.90;60.00;;;;;;10285358;28;94510;-63
2023/12/09 07:32:32;;;;;;;;;;;17.00;60.10;;;;;;10281000;28;95852;-63
2023/12/09 07:37:34;;;;;;;;;;;17.00;59.90;;;;;;10272761;28;93384;-65
2023/12/09 07:42:36;;;;;;;;;;;17.00;60.00;;;;;;10281993;28;94419;-63
2023/12/09 07:47:38;;;;;;;;;;;17.10;60.10;;;;;;10271115;28;93434;-63
2023/12/09 07:52:40;;;;;;;;;;;17.20;60.00;;;;;;10286043;28;93429;-62
2023/12/09 07:57:42;;;;;;;;;;;17.50;59.80;;;;;;10273213;28;93406;-62
2023/12/09 08:02:43;;;;;;;;;;;17.70;59.40;;;;;;10271082;28;94273;-62
2023/12/09 08:07:45;;;;;;;;;;;17.80;58.90;;;;;;10284500;28;92526;-62
2023/12/09 08:12:47;;;;;;;;;;;17.90;58.80;;;;;;10283562;28;94660;-63
2023/12/09 08:17:49;;;;;;;;;;;18.00;59.50;;;;;;10285161;28;93388;-63
2023/12/09 08:22:51;;;;;;;;;;;18.20;59.50;;;;;;10281409;28;96898;-68
2023/12/09 08:27:53;;;;;;;;;;;18.20;59.50;;;;;;10288419;28;94107;-71
2023/12/09 08:32:55;;;;;;;;;;;18.20;59.60;;;;;;10290425;28;94526;-64
2023/12/09 08:37:57;;;;;;;;;;;18.20;60.00;;;;;;10282334;28;94506;-62
2023/12/09 08:42:59;;;;;;;;;;;18.20;60.40;;;;;;10285783;28;95886;-70
2023/12/09 08:48:01;;;;;;;;;;;18.20;60.30;;;;;;10290194;28;94703;-63
2023/12/09 08:53:03;;;;;;;;;;;18.20;60.10;;;;;;10286525;28;94401;-62
2023/12/09 08:58:05;;;;;;;;;;;18.00;60.10;;;;;;10286256;28;93689;-62
2023/12/09 09:03:06;;;;;;;;;;;17.90;60.00;;;;;;10288832;28;94471;-63
2023/12/09 09:08:09;;;;;;;;;;;17.90;60.20;;;;;;10292105;28;93511;-63
2023/12/09 09:13:10;;;;;;;;;;;17.80;60.30;;;;;;10283266;28;95786;-64
2023/12/09 09:18:13;;;;;;;;;;;17.80;60.30;;;;;;10283361;28;94153;-62
2023/12/09 09:23:16;;;;;;;;;;;17.90;61.50;;;;;;10295512;28;94459;-65
2023/12/09 09:28:17;;;;;;;;;;;18.00;61.20;;;;;;10297802;28;93496;-64
2023/12/09 09:33:19;;;;;;;;;;;18.10;60.90;;;;;;10293287;28;93340;-64
2023/12/09 09:38:21;;;;;;;;;;;18.10;60.80;;;;;;10291317;28;94639;-64
2023/12/09 09:43:25;;;;;;;;;;;18.10;61.00;;;;;;10295050;28;94726;-70
2023/12/09 09:48:28;;;;;;;;;;;18.10;61.00;;;;;;10281639;28;93763;-64
2023/12/09 09:53:41;;;;;;;;;;;18.10;60.90;;;;;;10290449;28;94635;-64
2023/12/09 09:58:42;;;;;;;;;;;18.10;61.00;;;;;;10298304;28;94319;-63
2023/12/09 10:03:45;;;;;;;;;;;18.10;61.10;;;;;;10285293;28;95917;-64
2023/12/09 10:08:47;;;;;;;;;;;18.00;61.20;;;;;;10289638;28;93583;-62
2023/12/09 10:13:51;;;;;;;;;;;18.00;61.50;;;;;;10281095;28;94582;-64
2023/12/09 10:18:53;;;;;;;;;;;18.10;61.20;;;;;;10279918;28;94686;-63
2023/12/09 10:23:56;;;;;;;;;;;18.10;60.80;;;;;;10282731;28;95255;-64
2023/12/09 10:28:58;;;;;;;;;;;18.00;60.50;;;;;;10283349;28;93612;-64
2023/12/09 10:34:00;;;;;;;;;;;17.90;61.40;;;;;;10283401;28;93323;-64
2023/12/09 10:39:05;;;;;;;;;;;17.90;60.40;;;;;;10284526;28;92212;-64
2023/12/09 10:44:07;;;;;;;;;;;17.80;60.50;;;;;;10277330;28;93272;-64
2023/12/09 10:49:09;;;;;;;;;;;17.70;60.60;;;;;;10277741;28;94105;-64
2023/12/09 10:54:10;;;;;;;;;;;17.60;60.70;;;;;;10301817;28;95838;-63
2023/12/09 10:59:13;;;;;;;;;;;17.50;60.80;;;;;;10282384;28;93478;-63
2023/12/09 11:04:15;;;;;;;;;;;17.50;60.90;;;;;;10280755;28;94081;-64
2023/12/09 11:09:18;;;;;;;;;;;17.30;60.90;;;;;;10282704;28;94033;-63
2023/12/09 11:14:28;;;;;;;;;;;17.30;61.20;;;;;;10280350;28;112687;-64
2023/12/09 11:19:31;;;;;;;;;;;17.20;61.20;;;;;;10276384;28;94070;-63
2023/12/09 11:24:34;;;;;;;;;;;17.20;61.50;;;;;;10282906;28;93538;-64
2023/12/09 11:29:36;;;;;;;;;;;17.10;61.60;;;;;;10283874;28;92707;-64
2023/12/09 11:34:38;;;;;;;;;;;17.10;61.80;;;;;;10281042;28;93389;-64
2023/12/09 11:39:40;;;;;;;;;;;17.00;61.90;;;;;;10281702;28;94901;-64
2023/12/09 11:44:43;;;;;;;;;;;17.00;62.00;;;;;;10287209;28;96549;-71
2023/12/09 11:49:46;;;;;;;;;;;16.90;62.10;;;;;;10282498;28;93466;-64
2023/12/09 11:54:58;;;;;;;;;;;16.90;62.20;;;;;;10282073;28;93823;-63
2023/12/09 11:59:59;;;;;;;;;;;16.80;62.20;;;;;;10279991;28;94178;-63
2023/12/09 12:05:05;;;;;;;;;;;16.80;62.40;;;;;;10280825;28;93581;-63
2023/12/09 12:10:08;;;;;;;;;;;16.70;62.30;;;;;;10280297;28;93413;-62
2023/12/09 12:15:10;;;;;;;;;;;16.70;62.40;;;;;;10281082;28;93400;-64
2023/12/09 12:20:12;;;;;;;;;;;16.60;62.30;;;;;;10285985;28;93692;-63
2023/12/09 12:25:15;;;;;;;;;;;16.60;62.40;;;;;;10289054;28;93963;-63
2023/12/09 12:30:16;;;;;;;;;;;16.60;62.30;;;;;;10272685;28;94869;-62
2023/12/09 12:35:18;;;;;;;;;;;16.50;62.30;;;;;;10283700;28;96702;-62
2023/12/09 12:40:20;;;;;;;;;;;16.50;62.30;;;;;;10277674;28;93026;-63
2023/12/09 12:45:23;;;;;;;;;;;16.50;62.40;;;;;;10280412;28;94418;-62
2023/12/09 12:50:29;;;;;;;;;;;16.50;62.40;;;;;;10270925;28;93534;-63
2023/12/09 12:55:31;;;;;;;;;;;16.40;62.40;;;;;;10301126;28;93443;-63
2023/12/09 13:00:33;;;;;;;;;;;16.40;62.30;;;;;;10278593;28;93870;-63
2023/12/09 13:05:34;;;;;;;;;;;16.40;62.30;;;;;;10285770;28;93582;-63
2023/12/09 13:10:36;;;;;;;;;;;16.40;62.30;;;;;;10288268;28;92159;-63
2023/12/09 13:15:38;;;;;;;;;;;16.40;62.30;;;;;;10285417;28;94682;-65
2023/12/09 13:20:45;;;;;;;;;;;16.40;62.30;;;;;;10285602;28;94475;-63
2023/12/09 13:25:47;;;;;;;;;;;16.30;62.30;;;;;;10283152;28;96970;-62
2023/12/09 13:30:49;;;;;;;;;;;16.30;62.30;;;;;;10285041;28;93509;-62
2023/12/09 13:35:51;;;;;;;;;;;16.30;62.30;;;;;;10285019;28;95177;-65
2023/12/09 13:40:52;;;;;;;;;;;16.30;62.30;;;;;;10285457;28;94794;-64
2023/12/09 13:45:54;;;;;;;;;;;16.30;62.30;;;;;;10285015;28;94651;-70
2023/12/09 13:50:56;;;;;;;;;;;16.30;62.30;;;;;;10279809;28;94576;-63
2023/12/09 13:55:58;;;;;;;;;;;16.30;62.30;;;;;;10287559;28;94421;-62
2023/12/09 14:01:00;;;;;;;;;;;16.20;62.30;;;;;;10286392;28;93366;-63
2023/12/09 14:06:03;;;;;;;;;;;16.30;62.40;;;;;;10279307;28;92618;-63
2023/12/09 14:11:07;;;;;;;;;;;16.20;62.30;;;;;;10283777;28;93949;-64
2023/12/09 14:16:09;;;;;;;;;;;16.20;62.30;;;;;;10281653;28;97139;-63
2023/12/09 14:21:12;;;;;;;;;;;16.20;62.30;;;;;;10283599;28;94920;-63
2023/12/09 14:26:14;;;;;;;;;;;16.20;62.30;;;;;;10297723;28;94397;-63
2023/12/09 14:31:17;;;;;;;;;;;16.10;62.30;;;;;;10291798;28;94621;-63
2023/12/09 14:36:18;;;;;;;;;;;16.10;62.40;;;;;;10284191;28;94419;-63
2023/12/09 14:41:20;;;;;;;;;;;16.10;62.50;;;;;;10272903;28;94735;-63
2023/12/09 14:46:22;;;;;;;;;;;16.10;62.50;;;;;;10276868;28;94421;-63
2023/12/09 14:51:24;;;;;;;;;;;16.10;62.50;;;;;;10282128;28;94207;-63
2023/12/09 14:56:43;;;;;;;;;;;16.00;62.40;;;;;;10282403;28;94719;-63
2023/12/09 15:01:45;;;;;;;;;;;16.00;62.60;;;;;;10297850;28;93713;-64
2023/12/09 15:06:49;;;;;;;;;;;16.00;62.60;;;;;;10276509;28;96831;-64
2023/12/09 15:11:52;;;;;;;;;;;15.90;62.50;;;;;;10283095;28;93492;-63
2023/12/09 15:16:54;;;;;;;;;;;16.00;62.60;;;;;;10280846;28;93969;-63
2023/12/09 15:21:56;;;;;;;;;;;16.00;62.60;;;;;;10281930;28;93536;-63
2023/12/09 15:26:57;;;;;;;;;;;16.00;62.60;;;;;;10282730;28;93462;-63
2023/12/09 15:31:59;;;;;;;;;;;15.90;62.50;;;;;;10279192;28;94333;-63
2023/12/09 15:37:01;;;;;;;;;;;15.90;62.50;;;;;;10282562;28;93867;-64
2023/12/09 15:42:03;;;;;;;;;;;15.90;62.60;;;;;;10284975;28;92854;-64
2023/12/09 15:47:06;;;;;;;;;;;15.90;62.70;;;;;;10282168;28;93274;-64
2023/12/09 15:52:08;;;;;;;;;;;15.90;62.60;;;;;;10283092;28;93482;-62
2023/12/09 15:57:10;;;;;;;;;;;15.90;62.60;;;;;;10293550;28;98066;-62
2023/12/09 16:02:12;;;;;;;;;;;15.90;62.50;;;;;;10279725;28;93576;-62
2023/12/09 16:07:14;;;;;;;;;;;15.80;62.50;;;;;;10280732;28;93370;-63
2023/12/09 16:12:16;;;;;;;;;;;15.80;62.50;;;;;;10294231;28;93400;-63
2023/12/09 16:17:18;;;;;;;;;;;15.80;62.50;;;;;;10289680;28;97221;-63
2023/12/09 16:22:20;;;;;;;;;;;15.80;62.60;;;;;;10294754;28;94764;-63
2023/12/09 16:27:23;;;;;;;;;;;15.80;62.50;;;;;;10299346;28;93484;-64
2023/12/09 16:32:25;;;;;;;;;;;15.80;62.60;;;;;;10277021;28;93468;-64
2023/12/09 16:37:28;;;;;;;;;;;15.80;62.50;;;;;;10285890;28;93822;-63
2023/12/09 16:42:29;;;;;;;;;;;15.80;63.40;;;;;;10288104;28;94504;-64
2023/12/09 16:47:33;;;;;;;;;;;15.80;62.40;;;;;;10283713;28;95864;-62
2023/12/09 16:52:35;;;;;;;;;;;15.80;62.40;;;;;;10287107;28;94779;-63
2023/12/09 16:57:38;;;;;;;;;;;15.80;62.40;;;;;;10286700;28;92809;-63
2023/12/09 17:02:40;;;;;;;;;;;15.80;62.40;;;;;;10284899;28;94111;-63
2023/12/09 17:07:41;;;;;;;;;;;15.80;62.40;;;;;;10285210;28;92670;-63
2023/12/09 17:12:43;;;;;;;;;;;15.70;62.30;;;;;;10282248;28;93893;-63
2023/12/09 17:17:45;;;;;;;;;;;15.80;62.40;;;;;;10286507;28;93848;-63
2023/12/09 17:22:48;;;;;;;;;;;15.80;62.30;;;;;;10285502;28;93043;-63
2023/12/09 17:27:50;;;;;;;;;;;15.80;62.40;;;;;;10298706;28;93604;-64
2023/12/09 17:32:52;;;;;;;;;;;15.80;62.40;;;;;;10299312;28;93468;-63
2023/12/09 17:37:55;;;;;;;;;;;15.70;62.30;;;;;;10281271;28;97567;-63
2023/12/09 17:42:56;;;;;;;;;;;15.70;62.30;;;;;;10284291;28;93415;-63
2023/12/09 17:47:59;;;;;;;;;;;15.70;62.40;;;;;;10285720;28;94134;-64
2023/12/09 17:53:00;;;;;;;;;;;15.70;62.40;;;;;;10293784;28;93296;-63
2023/12/09 17:58:03;;;;;;;;;;;15.70;62.40;;;;;;10277434;28;94392;-63
2023/12/09 18:03:04;;;;;;;;;;;15.70;62.40;;;;;;10284546;28;93391;-63
2023/12/09 18:08:06;;;;;;;;;;;15.70;62.40;;;;;;10285808;28;94457;-63
2023/12/09 18:13:10;;;;;;;;;;;15.70;62.40;;;;;;10285382;28;93441;-63
2023/12/09 18:18:11;;;;;;;;;;;15.70;62.50;;;;;;10274422;28;94770;-62
2023/12/09 18:23:13;;;;;;;;;;;15.70;62.50;;;;;;10282601;28;94556;-65
2023/12/09 18:28:15;;;;;;;;;;;15.70;62.60;;;;;;10281922;28;97151;-62
2023/12/09 18:33:17;;;;;;;;;;;15.60;62.50;;;;;;10286098;28;94546;-63
2023/12/09 18:38:19;;;;;;;;;;;15.60;62.50;;;;;;10281111;28;93631;-62
2023/12/09 18:43:21;;;;;;;;;;;15.60;62.60;;;;;;10285228;28;93429;-63
2023/12/09 18:48:25;;;;;;;;;;;15.60;62.60;;;;;;10281235;28;93454;-64
2023/12/09 18:53:27;;;;;;;;;;;15.60;62.50;;;;;;10283135;28;94107;-64
2023/12/09 18:58:29;;;;;;;;;;;15.60;62.60;;;;;;10282120;28;94387;-63
2023/12/09 19:03:31;;;;;;;;;;;15.60;62.60;;;;;;10281734;28;93073;-63
2023/12/09 19:08:33;;;;;;;;;;;15.60;62.70;;;;;;10288049;28;94709;-63
2023/12/09 19:13:35;;;;;;;;;;;15.60;62.70;;;;;;10281462;28;94402;-62
2023/12/09 19:18:37;;;;;;;;;;;15.50;62.70;;;;;;10279796;28;96835;-63
2023/12/09 19:23:39;;;;;;;;;;;15.60;62.80;;;;;;10279794;28;94551;-63
2023/12/09 19:28:41;;;;;;;;;;;15.50;62.70;;;;;;10307107;28;92538;-63
2023/12/09 19:33:42;;;;;;;;;;;15.60;62.80;;;;;;10291047;28;94425;-64
2023/12/09 19:38:45;;;;;;;;;;;15.50;62.80;;;;;;10287032;28;94211;-63
2023/12/09 19:43:47;;;;;;;;;;;15.50;62.70;;;;;;10302091;28;93455;-64
2023/12/09 19:48:48;;;;;;;;;;;15.50;62.70;;;;;;10262408;28;93978;-64
2023/12/09 19:53:50;;;;;;;;;;;15.50;62.80;;;;;;10285134;28;93918;-63
2023/12/09 19:58:52;;;;;;;;;;;15.50;62.70;;;;;;10279062;28;94682;-70
2023/12/09 20:03:54;;;;;;;;;;;15.50;62.80;;;;;;10290167;28;94411;-64
2023/12/09 20:08:56;;;;;;;;;;;15.50;62.80;;;;;;10284592;28;96045;-63
2023/12/09 20:13:58;;;;;;;;;;;15.50;62.90;;;;;;10289484;28;94583;-63
2023/12/09 20:18:59;;;;;;;;;;;15.50;62.80;;;;;;10287497;28;93434;-63
2023/12/09 20:24:07;;;;;;;;;;;15.50;62.80;;;;;;10286344;28;93739;-63
2023/12/09 20:29:09;;;;;;;;;;;15.50;62.80;;;;;;10288279;28;96126;-63
2023/12/09 20:34:11;;;;;;;;;;;15.50;62.80;;;;;;10290505;28;94447;-63
2023/12/09 20:39:13;;;;;;;;;;;15.50;62.70;;;;;;10286465;28;93415;-64
2023/12/09 20:44:15;;;;;;;;;;;15.50;62.70;;;;;;10288918;28;92757;-62
2023/12/09 20:49:17;;;;;;;;;;;15.50;62.70;;;;;;10277128;28;93425;-62
2023/12/09 20:54:19;;;;;;;;;;;15.50;62.70;;;;;;10294807;28;94426;-63
2023/12/09 20:59:21;;;;;;;;;;;15.50;62.60;;;;;;10291910;28;96082;-63
2023/12/09 21:04:23;;;;;;;;;;;15.50;62.70;;;;;;10288403;28;93401;-63
2023/12/09 21:09:25;;;;;;;;;;;15.50;62.60;;;;;;10287578;28;93555;-63
2023/12/09 21:14:27;;;;;;;;;;;15.50;62.50;;;;;;10284963;28;93603;-63
2023/12/09 21:19:33;;;;;;;;;;;15.50;62.50;;;;;;10285678;28;93471;-64
2023/12/09 21:24:35;;;;;;;;;;;15.50;62.50;;;;;;10301168;28;95475;-63
2023/12/09 21:29:37;;;;;;;;;;;15.50;62.50;;;;;;10284710;28;93562;-62
2023/12/09 21:34:39;;;;;;;;;;;15.50;62.40;;;;;;10285837;28;92712;-63
2023/12/09 21:39:41;;;;;;;;;;;15.50;62.40;;;;;;10285515;28;93429;-63
2023/12/09 21:44:44;;;;;;;;;;;15.50;62.40;;;;;;10273627;28;93402;-63
2023/12/09 21:49:47;;;;;;;;;;;15.50;62.40;;;;;;10257906;28;96107;-63
2023/12/09 21:54:50;;;;;;;;;;;15.40;62.40;;;;;;10285492;28;93476;-63
2023/12/09 21:59:52;;;;;;;;;;;15.50;62.40;;;;;;10285120;28;94467;-65
2023/12/09 22:04:54;;;;;;;;;;;15.40;62.40;;;;;;10273324;28;94748;-63
2023/12/09 22:09:56;;;;;;;;;;;15.40;62.30;;;;;;10284801;28;94743;-63
2023/12/09 22:14:58;;;;;;;;;;;15.40;62.30;;;;;;10280619;28;94350;-64
2023/12/09 22:20:00;;;;;;;;;;;15.40;61.70;;;;;;10281863;28;94246;-63
2023/12/09 22:25:03;;;;;;;;;;;15.30;61.10;;;;;;10284899;28;93357;-63
2023/12/09 22:30:08;;;;;;;;;;;15.40;60.70;;;;;;10283516;28;93332;-62
2023/12/09 22:35:10;;;;;;;;;;;15.40;60.10;;;;;;10282938;28;93744;-63
2023/12/09 22:40:12;;;;;;;;;;;15.40;59.80;;;;;;10280890;28;95622;-63
2023/12/09 22:45:14;;;;;;;;;;;15.50;59.60;;;;;;10282850;28;93719;-63
2023/12/09 22:50:16;;;;;;;;;;;15.40;59.20;;;;;;10281730;28;93454;-64
2023/12/09 22:55:18;;;;;;;;;;;15.40;58.90;;;;;;10283712;28;94455;-63
2023/12/09 23:00:31;;;;;;;;;;;15.40;58.60;;;;;;10282143;28;94405;-63
2023/12/09 23:05:33;;;;;;;;;;;15.40;59.20;;;;;;10283869;28;94364;-63
2023/12/09 23:10:35;;;;;;;;;;;15.40;59.90;;;;;;10279507;28;93967;-63
2023/12/09 23:15:37;;;;;;;;;;;15.30;59.50;;;;;;10294175;28;93881;-63
2023/12/09 23:20:39;;;;;;;;;;;15.30;59.20;;;;;;10282292;28;93435;-63
2023/12/09 23:25:41;;;;;;;;;;;15.40;59.00;;;;;;10280818;28;93619;-63
2023/12/09 23:30:43;;;;;;;;;;;15.40;58.60;;;;;;10270550;28;96969;-64
2023/12/09 23:35:46;;;;;;;;;;;15.40;58.30;;;;;;10290784;28;93952;-64
2023/12/09 23:40:47;;;;;;;;;;;15.40;58.20;;;;;;10281020;28;94111;-64
2023/12/09 23:45:49;;;;;;;;;;;15.40;57.80;;;;;;10282945;28;94854;-64
2023/12/09 23:50:51;;;;;;;;;;;15.40;57.70;;;;;;10278144;28;94867;-64
2023/12/09 23:55:53;;;;;;;;;;;15.40;57.50;;;;;;10296694;28;94892;-63
